Terminal Aerodrome Forecast
Issued by NWS Northern Indiana

Home | Current Version | Previous Version | Graphics & Text | Print | Product List | Glossary On
Versions: 1 2 3 4 5 6 7 8 9 10 11 12 13 14 15
000
FTUS43 KIWX 161100
TAFFWA
TAF
KFWA 161135Z 1612/1712 36006KT 6SM BR FEW005 SCT020
      TEMPO 1612/1613 3SM BR SCT005
     FM161400 35005KT P6SM BKN030
     FM161500 33006KT P6SM SCT040
     FM170000 VRB03KT P6SM FEW040=

USA.gov is the U.S. government's official web portal to all federal, state and local government web resources and services.